sensor_id;sensor_type;location;lat;lon;timestamp;P1;durP1;ratioP1;P2;durP2;ratioP2
17261;SDS011;9873;52.236;21.002;2023-08-24T00:04:23;4.72;;;2.13;;
17261;SDS011;9873;52.236;21.002;2023-08-24T00:14:28;4.22;;;2.30;;
17261;SDS011;9873;52.236;21.002;2023-08-24T00:24:31;4.25;;;2.10;;
17261;SDS011;9873;52.236;21.002;2023-08-24T00:34:33;3.22;;;2.03;;
17261;SDS011;9873;52.236;21.002;2023-08-24T00:44:37;2.97;;;2.47;;
17261;SDS011;9873;52.236;21.002;2023-08-24T00:54:46;2.72;;;1.88;;
17261;SDS011;9873;52.236;21.002;2023-08-24T01:04:49;2.85;;;1.60;;
17261;SDS011;9873;52.236;21.002;2023-08-24T01:35:14;3.85;;;2.10;;
17261;SDS011;9873;52.236;21.002;2023-08-24T01:45:17;2.22;;;1.90;;
17261;SDS011;9873;52.236;21.002;2023-08-24T01:55:20;7.28;;;2.20;;
17261;SDS011;9873;52.236;21.002;2023-08-24T02:05:23;4.32;;;2.25;;
17261;SDS011;9873;52.236;21.002;2023-08-24T02:15:29;3.85;;;2.40;;
17261;SDS011;9873;52.236;21.002;2023-08-24T02:25:34;3.90;;;2.03;;
17261;SDS011;9873;52.236;21.002;2023-08-24T02:35:36;8.60;;;2.42;;
17261;SDS011;9873;52.236;21.002;2023-08-24T02:45:40;3.25;;;2.22;;
17261;SDS011;9873;52.236;21.002;2023-08-24T02:55:43;3.20;;;2.17;;
17261;SDS011;9873;52.236;21.002;2023-08-24T03:06:01;3.58;;;2.55;;
17261;SDS011;9873;52.236;21.002;2023-08-24T03:16:05;5.03;;;2.65;;
17261;SDS011;9873;52.236;21.002;2023-08-24T03:26:10;4.00;;;2.35;;
17261;SDS011;9873;52.236;21.002;2023-08-24T03:36:12;5.68;;;2.33;;
17261;SDS011;9873;52.236;21.002;2023-08-24T03:46:17;3.85;;;2.20;;
17261;SDS011;9873;52.236;21.002;2023-08-24T03:56:21;5.22;;;2.38;;
17261;SDS011;9873;52.236;21.002;2023-08-24T04:06:26;3.63;;;2.40;;
17261;SDS011;9873;52.236;21.002;2023-08-24T04:16:30;4.60;;;2.42;;
17261;SDS011;9873;52.236;21.002;2023-08-24T04:26:33;5.70;;;2.65;;
17261;SDS011;9873;52.236;21.002;2023-08-24T04:36:37;4.13;;;1.98;;
17261;SDS011;9873;52.236;21.002;2023-08-24T04:46:42;5.45;;;2.78;;
17261;SDS011;9873;52.236;21.002;2023-08-24T04:56:45;5.22;;;2.53;;
17261;SDS011;9873;52.236;21.002;2023-08-24T05:06:54;5.97;;;2.45;;
17261;SDS011;9873;52.236;21.002;2023-08-24T05:16:57;9.73;;;2.70;;
17261;SDS011;9873;52.236;21.002;2023-08-24T05:26:59;8.50;;;3.13;;
17261;SDS011;9873;52.236;21.002;2023-08-24T05:37:05;5.90;;;3.38;;
17261;SDS011;9873;52.236;21.002;2023-08-24T05:47:07;8.90;;;3.50;;
17261;SDS011;9873;52.236;21.002;2023-08-24T05:57:09;6.88;;;2.78;;
17261;SDS011;9873;52.236;21.002;2023-08-24T06:07:12;7.00;;;2.92;;
17261;SDS011;9873;52.236;21.002;2023-08-24T06:17:19;8.90;;;3.75;;
17261;SDS011;9873;52.236;21.002;2023-08-24T06:27:26;3.97;;;2.67;;
17261;SDS011;9873;52.236;21.002;2023-08-24T06:37:28;7.10;;;2.83;;
17261;SDS011;9873;52.236;21.002;2023-08-24T06:47:33;4.95;;;2.50;;
17261;SDS011;9873;52.236;21.002;2023-08-24T06:57:38;5.25;;;2.65;;
17261;SDS011;9873;52.236;21.002;2023-08-24T07:07:41;5.32;;;2.58;;
17261;SDS011;9873;52.236;21.002;2023-08-24T07:17:48;3.45;;;2.38;;
17261;SDS011;9873;52.236;21.002;2023-08-24T07:27:54;3.05;;;2.30;;
17261;SDS011;9873;52.236;21.002;2023-08-24T07:38:00;6.35;;;2.30;;
17261;SDS011;9873;52.236;21.002;2023-08-24T07:48:02;7.18;;;2.58;;
17261;SDS011;9873;52.236;21.002;2023-08-24T07:58:09;5.00;;;2.33;;
17261;SDS011;9873;52.236;21.002;2023-08-24T08:08:15;8.57;;;2.80;;
17261;SDS011;9873;52.236;21.002;2023-08-24T08:18:25;5.25;;;2.50;;
17261;SDS011;9873;52.236;21.002;2023-08-24T08:28:30;3.97;;;2.35;;
17261;SDS011;9873;52.236;21.002;2023-08-24T08:38:35;5.50;;;2.30;;
17261;SDS011;9873;52.236;21.002;2023-08-24T08:48:43;4.32;;;2.05;;
17261;SDS011;9873;52.236;21.002;2023-08-24T08:58:49;3.75;;;2.03;;
17261;SDS011;9873;52.236;21.002;2023-08-24T09:08:55;5.35;;;2.55;;
17261;SDS011;9873;52.236;21.002;2023-08-24T09:19:00;2.50;;;1.88;;
17261;SDS011;9873;52.236;21.002;2023-08-24T09:29:12;3.78;;;2.40;;
17261;SDS011;9873;52.236;21.002;2023-08-24T09:39:16;3.85;;;2.15;;
17261;SDS011;9873;52.236;21.002;2023-08-24T09:49:19;4.07;;;2.50;;
17261;SDS011;9873;52.236;21.002;2023-08-24T09:59:22;3.17;;;2.45;;
17261;SDS011;9873;52.236;21.002;2023-08-24T10:09:34;4.35;;;2.80;;
17261;SDS011;9873;52.236;21.002;2023-08-24T10:19:41;4.82;;;2.35;;
17261;SDS011;9873;52.236;21.002;2023-08-24T10:29:44;5.85;;;2.70;;
17261;SDS011;9873;52.236;21.002;2023-08-24T10:39:47;6.85;;;2.80;;
17261;SDS011;9873;52.236;21.002;2023-08-24T11:00:10;3.63;;;2.35;;
17261;SDS011;9873;52.236;21.002;2023-08-24T11:10:13;6.43;;;2.60;;
17261;SDS011;9873;52.236;21.002;2023-08-24T11:20:22;5.75;;;2.70;;
17261;SDS011;9873;52.236;21.002;2023-08-24T11:30:27;5.43;;;2.83;;
17261;SDS011;9873;52.236;21.002;2023-08-24T11:40:32;3.58;;;2.80;;
17261;SDS011;9873;52.236;21.002;2023-08-24T11:50:39;2.85;;;2.53;;
17261;SDS011;9873;52.236;21.002;2023-08-24T12:00:47;3.20;;;2.30;;
17261;SDS011;9873;52.236;21.002;2023-08-24T12:10:52;3.60;;;2.05;;
17261;SDS011;9873;52.236;21.002;2023-08-24T12:20:59;3.13;;;2.30;;
17261;SDS011;9873;52.236;21.002;2023-08-24T12:31:02;2.35;;;1.85;;
17261;SDS011;9873;52.236;21.002;2023-08-24T12:41:07;3.67;;;2.78;;
17261;SDS011;9873;52.236;21.002;2023-08-24T12:51:17;3.97;;;2.60;;
17261;SDS011;9873;52.236;21.002;2023-08-24T13:01:21;4.03;;;2.95;;
17261;SDS011;9873;52.236;21.002;2023-08-24T13:11:26;4.10;;;2.88;;
17261;SDS011;9873;52.236;21.002;2023-08-24T13:21:31;4.38;;;3.05;;
17261;SDS011;9873;52.236;21.002;2023-08-24T13:31:38;5.53;;;2.20;;
17261;SDS011;9873;52.236;21.002;2023-08-24T13:41:44;3.47;;;2.60;;
17261;SDS011;9873;52.236;21.002;2023-08-24T13:51:47;5.10;;;2.67;;
17261;SDS011;9873;52.236;21.002;2023-08-24T14:01:50;3.00;;;2.38;;
17261;SDS011;9873;52.236;21.002;2023-08-24T14:11:56;5.13;;;3.03;;
17261;SDS011;9873;52.236;21.002;2023-08-24T14:22:01;3.40;;;2.70;;
17261;SDS011;9873;52.236;21.002;2023-08-24T14:32:03;4.75;;;2.70;;
17261;SDS011;9873;52.236;21.002;2023-08-24T14:42:11;4.03;;;2.50;;
17261;SDS011;9873;52.236;21.002;2023-08-24T14:52:16;3.60;;;2.25;;
17261;SDS011;9873;52.236;21.002;2023-08-24T15:02:18;3.53;;;2.03;;
17261;SDS011;9873;52.236;21.002;2023-08-24T15:12:25;3.28;;;2.63;;
17261;SDS011;9873;52.236;21.002;2023-08-24T15:22:33;6.53;;;2.78;;
17261;SDS011;9873;52.236;21.002;2023-08-24T15:32:35;3.38;;;2.40;;
17261;SDS011;9873;52.236;21.002;2023-08-24T15:42:40;4.57;;;2.67;;
17261;SDS011;9873;52.236;21.002;2023-08-24T15:52:51;3.20;;;2.40;;
17261;SDS011;9873;52.236;21.002;2023-08-24T16:03:05;2.95;;;1.92;;
17261;SDS011;9873;52.236;21.002;2023-08-24T16:13:11;5.15;;;2.00;;
17261;SDS011;9873;52.236;21.002;2023-08-24T16:23:14;4.35;;;2.08;;
17261;SDS011;9873;52.236;21.002;2023-08-24T16:33:19;3.60;;;2.50;;
17261;SDS011;9873;52.236;21.002;2023-08-24T16:43:22;3.65;;;1.92;;
17261;SDS011;9873;52.236;21.002;2023-08-24T16:53:33;3.17;;;2.15;;
17261;SDS011;9873;52.236;21.002;2023-08-24T17:03:36;2.60;;;1.90;;
17261;SDS011;9873;52.236;21.002;2023-08-24T17:13:43;3.15;;;2.40;;
17261;SDS011;9873;52.236;21.002;2023-08-24T17:23:47;3.67;;;2.05;;
17261;SDS011;9873;52.236;21.002;2023-08-24T17:33:55;4.68;;;2.25;;
17261;SDS011;9873;52.236;21.002;2023-08-24T17:44:00;3.22;;;2.22;;
17261;SDS011;9873;52.236;21.002;2023-08-24T17:54:09;7.03;;;2.15;;
17261;SDS011;9873;52.236;21.002;2023-08-24T18:04:15;3.08;;;2.47;;
17261;SDS011;9873;52.236;21.002;2023-08-24T18:14:18;3.65;;;2.85;;
17261;SDS011;9873;52.236;21.002;2023-08-24T18:24:25;5.47;;;2.70;;
17261;SDS011;9873;52.236;21.002;2023-08-24T18:34:32;4.10;;;3.13;;
17261;SDS011;9873;52.236;21.002;2023-08-24T18:44:37;6.18;;;3.10;;
17261;SDS011;9873;52.236;21.002;2023-08-24T18:54:44;6.68;;;3.08;;
17261;SDS011;9873;52.236;21.002;2023-08-24T19:04:48;5.45;;;3.53;;
17261;SDS011;9873;52.236;21.002;2023-08-24T19:14:58;5.65;;;3.47;;
17261;SDS011;9873;52.236;21.002;2023-08-24T19:25:09;4.90;;;3.35;;
17261;SDS011;9873;52.236;21.002;2023-08-24T19:35:18;6.13;;;2.90;;
17261;SDS011;9873;52.236;21.002;2023-08-24T19:45:25;6.70;;;2.85;;
17261;SDS011;9873;52.236;21.002;2023-08-24T19:55:31;4.72;;;2.35;;
17261;SDS011;9873;52.236;21.002;2023-08-24T20:05:33;4.07;;;2.30;;
17261;SDS011;9873;52.236;21.002;2023-08-24T20:15:38;5.07;;;2.30;;
17261;SDS011;9873;52.236;21.002;2023-08-24T20:25:47;2.65;;;2.30;;
17261;SDS011;9873;52.236;21.002;2023-08-24T20:35:50;6.90;;;2.33;;
17261;SDS011;9873;52.236;21.002;2023-08-24T20:45:56;4.32;;;2.72;;
17261;SDS011;9873;52.236;21.002;2023-08-24T20:56:02;5.53;;;3.03;;
17261;SDS011;9873;52.236;21.002;2023-08-24T21:06:10;7.70;;;3.50;;
17261;SDS011;9873;52.236;21.002;2023-08-24T21:16:15;9.73;;;5.78;;
17261;SDS011;9873;52.236;21.002;2023-08-24T21:26:19;10.07;;;4.90;;
17261;SDS011;9873;52.236;21.002;2023-08-24T21:36:21;6.18;;;4.40;;
17261;SDS011;9873;52.236;21.002;2023-08-24T21:46:29;11.20;;;4.90;;
17261;SDS011;9873;52.236;21.002;2023-08-24T21:56:36;5.40;;;3.00;;
17261;SDS011;9873;52.236;21.002;2023-08-24T22:06:46;6.88;;;2.63;;
17261;SDS011;9873;52.236;21.002;2023-08-24T22:16:53;9.15;;;3.22;;
17261;SDS011;9873;52.236;21.002;2023-08-24T22:26:56;5.85;;;2.83;;
17261;SDS011;9873;52.236;21.002;2023-08-24T22:37:00;6.50;;;3.05;;
17261;SDS011;9873;52.236;21.002;2023-08-24T22:47:05;8.65;;;2.53;;
17261;SDS011;9873;52.236;21.002;2023-08-24T22:57:07;3.70;;;2.58;;
17261;SDS011;9873;52.236;21.002;2023-08-24T23:07:10;3.63;;;2.63;;
17261;SDS011;9873;52.236;21.002;2023-08-24T23:17:13;4.00;;;2.00;;
17261;SDS011;9873;52.236;21.002;2023-08-24T23:27:18;4.20;;;2.10;;
17261;SDS011;9873;52.236;21.002;2023-08-24T23:37:23;4.40;;;2.25;;
17261;SDS011;9873;52.236;21.002;2023-08-24T23:47:28;6.07;;;2.60;;
17261;SDS011;9873;52.236;21.002;2023-08-24T23:57:33;3.90;;;2.70;;
